Time;durP1;ratioP1;P1;durP2;ratioP2;P2;SDS_P1;SDS_P2;PMS_P1;PMS_P2;Temp;Humidity;BMP_temperature;BMP_pressure;BME280_temperature;BME280_humidity;BME280_pressure;Samples;Min_cycle;Max_cycle;Signal;HPM_P1;HPM_P2
2023/07/09 00:02:21;;;;;;;;;4.67;4.33;;;;;26.23;60.02;100545.75;5017690;28;46212;-79
2023/07/09 00:04:47;;;;;;;;;6.33;5.67;;;;;26.10;60.24;100524.78;5018074;28;45450;-79
2023/07/09 00:07:24;;;;;;;;;7.00;6.33;;;;;26.19;60.43;100539.63;5018577;28;45312;-79
2023/07/09 00:09:50;;;;;;;;;5.67;5.00;;;;;26.01;60.37;100524.22;5024744;28;45681;-79
2023/07/09 00:12:19;;;;;;;;;5.00;5.00;;;;;26.17;60.52;100550.38;5009056;28;45581;-79
2023/07/09 00:14:44;;;;;;;;;4.33;4.33;;;;;26.03;60.80;100533.06;5030746;28;45543;-79
2023/07/09 00:17:26;;;;;;;;;4.00;4.00;;;;;26.02;60.34;100542.00;5018161;28;45466;-80
2023/07/09 00:19:52;;;;;;;;;4.00;4.00;;;;;25.92;60.48;100520.03;5016768;28;45470;-79
2023/07/09 00:22:19;;;;;;;;;3.67;3.67;;;;;26.13;60.46;100556.78;5017901;28;46135;-80
2023/07/09 00:24:51;;;;;;;;;3.67;3.67;;;;;26.06;60.80;100559.72;5030504;28;45317;-79
2023/07/09 00:27:18;;;;;;;;;4.00;4.00;;;;;26.10;60.75;100561.34;5018216;28;45573;-79
2023/07/09 00:29:44;;;;;;;;;4.00;4.00;;;;;26.09;60.18;100554.28;5007897;28;45517;-80
2023/07/09 00:32:20;;;;;;;;;4.00;4.00;;;;;26.08;60.37;100558.72;5007665;28;46158;-80
2023/07/09 00:34:51;;;;;;;;;5.00;4.33;;;;;26.10;60.50;100561.34;5015274;28;45415;-79
2023/07/09 00:37:19;;;;;;;;;4.00;3.67;;;;;25.97;60.49;100548.41;5016455;28;45518;-80
2023/07/09 00:39:46;;;;;;;;;3.33;3.00;;;;;26.12;60.33;100556.81;5015432;28;45403;-79
2023/07/09 00:42:17;;;;;;;;;4.00;2.33;;;;;25.79;60.50;100516.88;5017382;28;47828;-80
2023/07/09 00:44:51;;;;;;;;;5.67;4.00;;;;;26.07;60.73;100553.44;5017467;28;45533;-79
2023/07/09 00:47:43;;;;;;;;;3.67;3.67;;;;;26.04;60.54;100561.56;5017478;28;45646;-80
2023/07/09 00:50:19;;;;;;;;;4.00;3.00;;;;;26.02;60.48;100544.69;5024091;28;45517;-79
2023/07/09 00:52:58;;;;;;;;;4.33;3.00;;;;;26.11;60.13;100552.41;5014671;28;46731;-79
2023/07/09 00:55:29;;;;;;;;;5.00;5.00;;;;;26.09;60.38;100539.06;5007989;28;45486;-79
2023/07/09 00:58:00;;;;;;;;;3.00;3.00;;;;;25.77;60.64;100498.19;5008177;28;45498;-80
2023/07/09 01:00:42;;;;;;;;;3.00;3.00;;;;;26.07;60.72;100551.63;5015372;28;45877;-80
2023/07/09 01:03:11;;;;;;;;;4.00;3.00;;;;;26.02;60.86;100536.66;5015329;28;46206;-79
2023/07/09 01:05:38;;;;;;;;;4.00;3.67;;;;;26.08;60.61;100548.03;5017825;28;45692;-80
2023/07/09 01:08:05;;;;;;;;;3.67;3.67;;;;;26.01;60.81;100537.59;5016063;28;45369;-79
2023/07/09 01:10:31;;;;;;;;;3.33;2.67;;;;;25.89;60.98;100512.97;5017809;28;45359;-79
2023/07/09 01:12:57;;;;;;;;;2.33;2.00;;;;;26.02;60.63;100536.66;5017267;28;45442;-79
2023/07/09 01:15:22;;;;;;;;;3.00;3.00;;;;;26.07;60.84;100551.63;5014917;28;45390;-80
2023/07/09 01:17:52;;;;;;;;;3.33;3.33;;;;;25.91;61.01;100521.84;5017508;28;45423;-80
2023/07/09 01:20:20;;;;;;;;;3.67;3.00;;;;;26.04;61.22;100554.41;5016218;28;46200;-79
2023/07/09 01:22:48;;;;;;;;;5.00;4.00;;;;;26.06;61.24;100554.34;5014413;28;45601;-79
2023/07/09 01:25:14;;;;;;;;;3.00;3.00;;;;;25.89;61.46;100528.16;5017087;28;45478;-79
2023/07/09 01:27:44;;;;;;;;;5.00;5.00;;;;;26.03;61.56;100546.47;5015724;28;45355;-79
2023/07/09 01:30:16;;;;;;;;;4.00;4.00;;;;;26.05;61.70;100549.94;5017383;28;45666;-79
2023/07/09 01:32:45;;;;;;;;;3.00;3.00;;;;;25.98;61.48;100547.50;5015195;28;47668;-80
2023/07/09 01:35:14;;;;;;;;;3.67;3.33;;;;;25.77;61.45;100521.41;5016095;28;45516;-79
2023/07/09 01:37:42;;;;;;;;;4.00;4.00;;;;;25.77;61.75;100522.28;5014070;28;45375;-80
2023/07/09 01:40:09;;;;;;;;;6.00;3.33;;;;;25.90;61.93;100551.28;5015610;28;45225;-79
2023/07/09 01:42:36;;;;;;;;;3.33;2.33;;;;;25.79;61.36;100528.44;4998003;28;46882;-80
2023/07/09 01:45:05;;;;;;;;;5.33;4.33;;;;;25.85;62.14;100538.06;5015452;28;45493;-78
2023/07/09 01:47:30;;;;;;;;;4.33;4.33;;;;;25.59;62.19;100518.41;5016052;28;45525;-80
2023/07/09 01:49:59;;;;;;;;;4.00;4.00;;;;;25.80;62.25;100558.75;5014789;28;45460;-80
2023/07/09 01:52:29;;;;;;;;;3.33;3.33;;;;;25.72;62.22;100534.06;5014745;28;47137;-80
2023/07/09 01:54:58;;;;;;;;;2.67;2.67;;;;;25.71;61.85;100527.84;5015947;28;45476;-78
2023/07/09 01:57:32;;;;;;;;;4.33;3.33;;;;;25.92;61.65;100560.19;5016073;28;45530;-80
2023/07/09 01:59:59;;;;;;;;;4.67;4.00;;;;;25.92;62.10;100552.16;5016222;28;45368;-80
2023/07/09 02:02:25;;;;;;;;;2.00;2.00;;;;;25.92;62.02;100561.03;5015256;28;46677;-79
2023/07/09 02:04:53;;;;;;;;;3.00;3.00;;;;;25.93;61.44;100560.13;5015905;28;45411;-80
2023/07/09 02:07:20;;;;;;;;;4.00;4.00;;;;;25.80;62.11;100532.91;5015944;28;45273;-80
2023/07/09 02:09:46;;;;;;;;;4.00;4.00;;;;;25.91;61.78;100548.59;5014632;28;45529;-80
2023/07/09 02:12:23;;;;;;;;;6.00;5.00;;;;;25.89;61.88;100553.09;5014003;28;46442;-79
2023/07/09 02:14:49;;;;;;;;;6.00;5.00;;;;;25.74;61.82;100535.75;5015754;28;45540;-80
2023/07/09 02:17:15;;;;;;;;;4.00;4.00;;;;;25.72;62.26;100528.69;5015762;28;45495;-80
2023/07/09 02:19:41;;;;;;;;;4.67;4.00;;;;;25.87;62.07;100549.59;5015994;28;45406;-80
2023/07/09 02:22:08;;;;;;;;;5.00;5.00;;;;;25.92;62.21;100555.69;5015952;28;45425;-80
2023/07/09 02:24:34;;;;;;;;;6.00;4.00;;;;;25.93;62.22;100559.28;5016082;28;45180;-80
2023/07/09 02:27:02;;;;;;;;;4.67;4.67;;;;;25.89;61.85;100558.47;5013373;28;45483;-80
2023/07/09 02:29:28;;;;;;;;;4.00;4.00;;;;;25.86;62.33;100558.53;5015783;28;45265;-80
2023/07/09 02:31:55;;;;;;;;;3.00;3.00;;;;;25.83;62.58;100560.47;5015288;28;45818;-80
2023/07/09 02:34:25;;;;;;;;;4.00;3.25;;;;;25.66;62.79;100534.25;4960895;28;1521386;-80
2023/07/09 02:36:54;;;;;;;;;4.00;4.00;;;;;25.71;63.08;100553.72;5016835;28;45548;-80
2023/07/09 02:39:20;;;;;;;;;4.33;4.00;;;;;25.73;63.29;100558.09;5016758;28;45437;-80
2023/07/09 02:41:47;;;;;;;;;5.00;5.00;;;;;25.70;63.47;100562.66;5015095;28;46337;-80
2023/07/09 02:44:13;;;;;;;;;4.00;3.00;;;;;25.67;63.05;100565.44;5015302;28;45470;-80
2023/07/09 02:46:39;;;;;;;;;5.33;5.00;;;;;25.58;63.21;100554.09;5017287;28;45229;-79
2023/07/09 02:49:05;;;;;;;;;4.00;3.33;;;;;25.66;63.09;100574.38;5015690;28;45289;-80
2023/07/09 02:51:31;;;;;;;;;5.00;4.00;;;;;25.55;64.23;100561.38;5016638;28;46103;-80
2023/07/09 02:54:01;;;;;;;;;3.33;3.33;;;;;25.48;64.97;100573.16;5015481;28;45769;-80
2023/07/09 02:56:27;;;;;;;;;5.33;5.33;;;;;25.44;66.07;100583.09;5016864;28;45655;-80
2023/07/09 02:58:53;;;;;;;;;8.00;6.33;;;;;25.16;66.43;100540.25;5016946;28;45264;-80
2023/07/09 03:01:24;;;;;;;;;7.00;7.00;;;;;25.33;65.90;100582.56;5015278;28;45496;-80
2023/07/09 03:03:59;;;;;;;;;6.67;6.67;;;;;25.28;66.55;100576.47;5016323;28;45488;-80
2023/07/09 03:06:27;;;;;;;;;9.00;8.67;;;;;25.29;66.04;100580.91;5016597;28;45449;-80
2023/07/09 03:08:53;;;;;;;;;6.33;6.00;;;;;25.19;66.52;100581.13;5016488;28;45359;-80
2023/07/09 03:11:20;;;;;;;;;7.00;6.00;;;;;25.06;66.74;100558.34;5016360;28;45995;-80
2023/07/09 03:13:46;;;;;;;;;8.00;7.00;;;;;25.17;67.63;100588.31;5016695;28;45499;-80
2023/07/09 03:16:12;;;;;;;;;8.67;6.67;;;;;25.08;68.28;100582.38;5016979;28;45369;-80
2023/07/09 03:18:38;;;;;;;;;9.33;8.67;;;;;24.81;68.30;100561.75;5015556;28;45514;-80
2023/07/09 03:21:04;;;;;;;;;8.00;7.00;;;;;24.86;69.17;100584.78;5016166;28;47890;-80
2023/07/09 03:23:30;;;;;;;;;9.00;8.00;;;;;24.70;68.99;100557.63;5014721;28;45497;-80
2023/07/09 03:25:57;;;;;;;;;6.00;6.00;;;;;24.86;69.12;100595.50;5016565;28;45478;-80
2023/07/09 03:28:23;;;;;;;;;7.33;6.00;;;;;24.90;69.08;100591.81;5016459;28;45660;-79
2023/07/09 03:30:52;;;;;;;;;7.00;6.00;;;;;24.89;68.82;100593.59;5014568;28;45471;-80
2023/07/09 03:33:18;;;;;;;;;7.00;7.00;;;;;24.81;68.34;100559.09;5014765;28;45511;-80
2023/07/09 03:35:43;;;;;;;;;6.33;6.33;;;;;24.70;68.01;100539.81;5014754;28;45499;-80
2023/07/09 03:38:11;;;;;;;;;7.67;6.67;;;;;25.02;67.47;100581.63;5018002;28;45560;-80
2023/07/09 03:40:37;;;;;;;;;8.33;6.67;;;;;25.01;68.29;100577.22;5018773;28;46677;-80
2023/07/09 03:43:07;;;;;;;;;7.00;6.33;;;;;24.92;67.73;100564.09;5019299;28;45402;-79
2023/07/09 03:45:35;;;;;;;;;8.00;7.00;;;;;25.05;67.63;100586.03;5020935;28;45465;-79
2023/07/09 03:48:06;;;;;;;;;6.00;6.00;;;;;24.98;67.40;100571.06;5019588;28;45353;-78
2023/07/09 03:50:33;;;;;;;;;7.00;5.00;;;;;25.07;66.86;100588.63;5019222;28;46489;-78
2023/07/09 03:52:58;;;;;;;;;7.33;6.67;;;;;25.02;67.66;100589.63;5020639;28;45415;-79
2023/07/09 03:55:26;;;;;;;;;9.00;8.00;;;;;24.98;68.25;100589.78;5020429;28;45626;-79
2023/07/09 03:57:57;;;;;;;;;8.00;7.00;;;;;24.94;68.10;100591.66;5019652;28;45254;-79
2023/07/09 04:00:27;;;;;;;;;8.67;7.00;;;;;24.91;68.28;100588.19;5019131;28;45402;-79
2023/07/09 04:02:53;;;;;;;;;7.67;7.00;;;;;24.94;68.28;100594.34;5018929;28;45340;-79
2023/07/09 04:05:19;;;;;;;;;7.00;7.00;;;;;24.87;68.62;100589.22;5020264;28;45640;-78
2023/07/09 04:07:45;;;;;;;;;7.33;7.33;;;;;24.92;68.36;100589.97;5019407;28;45618;-79
2023/07/09 04:10:11;;;;;;;;;8.00;8.00;;;;;24.89;68.80;100595.38;5020491;28;46374;-79
2023/07/09 04:12:37;;;;;;;;;7.33;7.00;;;;;24.75;69.40;100577.06;5020328;28;45383;-79
2023/07/09 04:15:04;;;;;;;;;7.33;7.33;;;;;24.70;69.61;100579.88;5018671;28;45332;-79
2023/07/09 04:17:32;;;;;;;;;7.00;7.00;;;;;24.78;69.35;100575.19;5020769;28;45366;-78
2023/07/09 04:19:58;;;;;;;;;5.33;5.00;;;;;24.86;68.55;100579.44;5001945;28;46381;-79
2023/07/09 04:22:23;;;;;;;;;4.67;4.00;;;;;24.88;69.24;100599.00;5019842;28;45261;-79
2023/07/09 04:24:49;;;;;;;;;5.33;5.00;;;;;24.63;70.07;100561.38;5020530;28;45166;-79
2023/07/09 04:27:16;;;;;;;;;5.00;4.67;;;;;24.76;69.82;100594.88;5020616;28;45267;-79
2023/07/09 04:29:52;;;;;;;;;6.00;4.33;;;;;24.38;70.33;100557.56;5020678;28;47674;-79
2023/07/09 04:32:19;;;;;;;;;6.00;5.67;;;;;24.62;70.89;100597.91;5035539;28;45360;-79
2023/07/09 04:34:45;;;;;;;;;3.33;3.33;;;;;24.68;69.91;100600.41;5019168;28;45459;-79
2023/07/09 04:37:12;;;;;;;;;3.00;3.00;;;;;24.58;70.58;100575.75;5020989;28;45308;-79
2023/07/09 04:39:39;;;;;;;;;5.00;4.00;;;;;24.53;70.69;100591.03;5020532;28;45407;-79
2023/07/09 04:42:13;;;;;;;;;4.00;4.00;;;;;24.61;70.72;100601.50;5019468;28;45252;-78
2023/07/09 04:44:39;;;;;;;;;4.00;4.00;;;;;24.50;70.90;100587.53;5018449;28;45406;-79
2023/07/09 04:47:12;;;;;;;;;4.33;3.67;;;;;24.54;70.50;100583.91;5019939;28;45357;-79
2023/07/09 04:49:37;;;;;;;;;2.00;2.00;;;;;24.46;70.22;100577.84;5017181;28;46418;-79
2023/07/09 04:52:06;;;;;;;;;2.00;2.00;;;;;24.55;70.46;100599.88;5019371;28;45485;-80
2023/07/09 04:54:32;;;;;;;;;4.00;3.00;;;;;24.27;70.43;100564.09;5018426;28;45406;-80
2023/07/09 04:56:58;;;;;;;;;4.33;3.00;;;;;24.49;70.59;100599.13;5019499;28;45256;-80
2023/07/09 04:59:26;;;;;;;;;2.67;2.33;;;;;24.48;70.52;100600.06;5018815;28;46330;-79
2023/07/09 05:01:52;;;;;;;;;3.00;3.00;;;;;24.62;70.43;100613.94;5019291;28;45454;-79
2023/07/09 05:04:18;;;;;;;;;3.33;3.00;;;;;24.66;70.31;100615.59;5018502;28;45516;-79
2023/07/09 05:06:43;;;;;;;;;3.00;2.33;;;;;24.71;70.26;100623.47;5019255;28;45625;-79
2023/07/09 05:09:09;;;;;;;;;3.00;2.00;;;;;24.59;70.53;100584.63;5019168;28;46190;-79
2023/07/09 05:11:38;;;;;;;;;2.00;2.00;;;;;24.77;69.83;100624.22;5017794;28;45546;-80
2023/07/09 05:14:05;;;;;;;;;3.00;3.00;;;;;24.48;70.06;100578.69;5018805;28;46087;-79
2023/07/09 05:16:31;;;;;;;;;3.00;2.00;;;;;24.80;69.69;100628.59;5018143;28;45470;-80
2023/07/09 05:18:59;;;;;;;;;3.00;2.00;;;;;24.74;69.54;100624.28;5017424;28;45525;-79
2023/07/09 05:21:24;;;;;;;;;2.33;2.00;;;;;24.62;70.32;100613.94;5019278;28;45272;-78
2023/07/09 05:23:50;;;;;;;;;2.00;2.00;;;;;24.68;70.12;100629.81;5018735;28;45340;-79
2023/07/09 05:26:15;;;;;;;;;2.00;2.00;;;;;24.64;69.90;100633.47;5018269;28;45564;-79
2023/07/09 05:28:41;;;;;;;;;2.00;2.00;;;;;24.79;69.24;100649.09;5019246;28;46267;-79
2023/07/09 05:31:10;;;;;;;;;2.00;2.00;;;;;24.82;68.71;100650.78;5018391;28;45534;-79
2023/07/09 05:33:36;;;;;;;;;1.00;1.00;;;;;24.94;68.54;100661.13;5018154;28;45522;-79
2023/07/09 05:36:03;;;;;;;;;3.67;3.00;;;;;24.93;68.61;100666.53;5019597;28;45387;-79
2023/07/09 05:38:30;;;;;;;;;2.67;1.67;;;;;24.89;68.78;100672.88;5020227;28;45482;-79
2023/07/09 05:41:01;;;;;;;;;1.67;1.00;;;;;24.91;68.68;100674.59;5018487;28;45450;-78
2023/07/09 05:43:27;;;;;;;;;1.67;1.00;;;;;24.85;68.35;100671.19;5017914;28;45452;-79
2023/07/09 05:45:53;;;;;;;;;3.00;2.00;;;;;24.90;67.98;100677.31;5018349;28;45399;-79
2023/07/09 05:48:25;;;;;;;;;2.00;2.00;;;;;24.96;68.13;100685.16;5017585;28;45282;-77
2023/07/09 05:50:53;;;;;;;;;1.33;1.33;;;;;24.98;67.99;100691.34;5016100;28;45552;-79
2023/07/09 05:53:19;;;;;;;;;1.00;1.00;;;;;24.84;67.40;100658.78;5015583;28;45535;-79
2023/07/09 05:55:44;;;;;;;;;2.00;2.00;;;;;25.09;67.42;100691.94;5017250;28;45501;-79
2023/07/09 05:58:10;;;;;;;;;2.33;2.00;;;;;25.14;66.89;100684.63;5011108;28;45761;-78
2023/07/09 06:00:37;;;;;;;;;2.67;2.33;;;;;25.14;67.05;100681.97;5016328;28;45390;-79
2023/07/09 06:03:07;;;;;;;;;2.67;1.00;;;;;25.18;67.71;100672.94;5007240;28;45414;-78
2023/07/09 06:05:33;;;;;;;;;2.00;2.00;;;;;25.27;66.96;100681.63;5013485;28;45389;-79
2023/07/09 06:07:59;;;;;;;;;2.00;1.33;;;;;25.37;66.88;100692.03;5016697;28;45553;-78
2023/07/09 06:10:25;;;;;;;;;3.00;2.00;;;;;25.42;66.65;100685.69;5017113;28;45320;-78
2023/07/09 06:12:52;;;;;;;;;2.00;2.00;;;;;25.65;66.23;100683.19;5016701;28;45446;-78
2023/07/09 06:15:18;;;;;;;;;1.67;1.00;;;;;26.13;65.68;100687.09;5017275;28;45458;-78
2023/07/09 06:17:44;;;;;;;;;2.00;2.00;;;;;26.70;63.15;100655.72;5015016;28;47768;-78
2023/07/09 06:20:10;;;;;;;;;2.00;1.67;;;;;27.50;61.30;100693.09;5005769;28;45434;-79
2023/07/09 06:22:36;;;;;;;;;2.33;2.33;;;;;27.27;61.47;100704.66;5004704;28;45585;-78
2023/07/09 06:25:02;;;;;;;;;5.00;4.00;;;;;27.03;61.74;100701.91;5020977;28;45793;-79
2023/07/09 06:27:28;;;;;;;;;2.00;2.00;;;;;26.97;61.75;100696.78;5007581;28;45443;-79
2023/07/09 06:29:53;;;;;;;;;3.33;3.00;;;;;27.05;61.22;100713.47;5005642;28;45439;-79
2023/07/09 06:32:19;;;;;;;;;3.00;3.00;;;;;26.94;61.64;100710.31;5005922;28;45423;-79
2023/07/09 06:34:44;;;;;;;;;3.00;2.00;;;;;26.79;61.53;100704.53;5006592;28;46829;-78
2023/07/09 06:37:10;;;;;;;;;3.00;3.00;;;;;26.74;62.04;100719.91;5021911;28;47314;-78
2023/07/09 06:39:36;;;;;;;;;2.67;2.00;;;;;26.72;61.79;100721.78;5020895;28;45831;-78
2023/07/09 06:42:01;;;;;;;;;3.67;2.33;;;;;26.73;62.31;100726.19;5005534;28;45549;-78
2023/07/09 06:44:27;;;;;;;;;2.00;2.00;;;;;26.65;62.04;100714.00;5005844;28;45598;-78
2023/07/09 06:46:52;;;;;;;;;2.00;2.00;;;;;26.66;62.23;100727.34;5005339;28;45512;-78
2023/07/09 06:49:18;;;;;;;;;2.00;2.00;;;;;26.72;62.13;100724.44;5005429;28;45505;-78
2023/07/09 06:51:44;;;;;;;;;3.00;2.00;;;;;26.59;61.84;100693.63;5006820;28;45544;-78
2023/07/09 06:54:15;;;;;;;;;4.33;3.00;;;;;26.77;62.02;100727.81;5013334;28;45509;-78
2023/07/09 06:56:41;;;;;;;;;4.00;4.00;;;;;26.79;61.78;100719.75;5015620;28;45438;-79
2023/07/09 06:59:06;;;;;;;;;3.67;3.67;;;;;26.78;61.48;100718.88;5014030;28;45443;-78
2023/07/09 07:01:32;;;;;;;;;3.00;3.00;;;;;26.89;61.04;100729.22;5016438;28;45419;-80
2023/07/09 07:04:00;;;;;;;;;3.33;2.33;;;;;26.86;61.22;100713.25;5016192;28;45425;-80
2023/07/09 07:06:25;;;;;;;;;3.33;3.33;;;;;26.88;60.97;100710.50;5015870;28;46257;-80
2023/07/09 07:08:52;;;;;;;;;5.00;3.33;;;;;26.72;61.20;100713.72;5016260;28;45238;-82
2023/07/09 07:11:17;;;;;;;;;2.67;2.00;;;;;26.51;61.85;100730.50;5015602;28;45473;-81
2023/07/09 07:13:43;;;;;;;;;4.67;4.00;;;;;26.47;61.41;100710.09;5017976;28;45304;-80
2023/07/09 07:16:11;;;;;;;;;3.00;3.00;;;;;26.71;61.09;100725.38;5017629;28;46490;-79
2023/07/09 07:18:37;;;;;;;;;2.33;2.33;;;;;26.83;60.56;100723.19;5015929;28;45380;-84
2023/07/09 07:21:03;;;;;;;;;1.67;1.33;;;;;26.85;59.37;100718.66;5018062;28;45664;-80
2023/07/09 07:23:29;;;;;;;;;3.00;3.00;;;;;26.90;59.62;100705.94;5017619;28;45494;-85
2023/07/09 07:25:55;;;;;;;;;2.00;1.00;;;;;27.02;59.57;100721.63;5018602;28;45299;-80
2023/07/09 07:28:21;;;;;;;;;2.00;2.00;;;;;27.11;59.22;100723.09;5015775;28;45589;-78
2023/07/09 07:30:57;;;;;;;;;2.67;2.33;;;;;27.08;59.12;100740.19;5018738;28;45529;-77
2023/07/09 07:33:22;;;;;;;;;3.00;2.33;;;;;27.08;59.16;100733.91;5018614;28;45573;-79
2023/07/09 07:35:48;;;;;;;;;3.00;2.00;;;;;27.26;59.15;100743.16;5018321;28;46219;-78
2023/07/09 07:38:13;;;;;;;;;3.00;2.00;;;;;27.39;58.57;100736.41;5018596;28;45463;-81
2023/07/09 07:40:43;;;;;;;;;4.00;3.00;;;;;27.41;58.46;100710.41;5018555;28;45578;-78
2023/07/09 07:43:09;;;;;;;;;4.67;3.00;;;;;27.68;57.47;100740.69;5016522;28;45514;-77
2023/07/09 07:45:34;;;;;;;;;2.33;2.33;;;;;27.69;56.81;100744.25;5018153;28;46520;-80
2023/07/09 07:48:00;;;;;;;;;3.33;2.00;;;;;27.75;56.71;100744.00;5018066;28;45348;-81
2023/07/09 07:50:25;;;;;;;;;3.00;2.00;;;;;27.63;55.95;100731.06;5008411;28;45511;-80
2023/07/09 07:52:51;;;;;;;;;2.67;1.00;;;;;27.70;56.19;100754.06;5008727;28;45467;-81
2023/07/09 07:55:18;;;;;;;;;1.00;1.00;;;;;27.53;57.00;100723.34;5007709;28;46002;-79
2023/07/09 07:57:44;;;;;;;;;3.00;3.00;;;;;27.69;55.96;100730.81;5009427;28;45328;-81
2023/07/09 08:00:10;;;;;;;;;2.00;1.67;;;;;27.67;56.39;100725.50;5013562;28;45327;-81
2023/07/09 08:02:35;;;;;;;;;2.00;2.00;;;;;27.91;55.67;100747.00;5019195;28;45578;-80
2023/07/09 08:05:02;;;;;;;;;1.67;1.00;;;;;28.02;55.61;100730.50;5018808;28;45921;-80
2023/07/09 08:07:27;;;;;;;;;3.00;2.00;;;;;28.45;54.94;100747.53;5034488;28;45232;-79
2023/07/09 08:09:53;;;;;;;;;2.00;2.00;;;;;28.79;53.76;100733.59;5018435;28;45422;-83
2023/07/09 08:12:18;;;;;;;;;1.00;1.00;;;;;29.17;52.39;100728.41;5018515;28;45228;-79
2023/07/09 08:14:46;;;;;;;;;1.00;1.00;;;;;29.49;51.68;100713.47;5017423;28;46163;-79
2023/07/09 08:17:12;;;;;;;;;2.00;2.00;;;;;29.93;51.13;100726.69;5017625;28;45437;-80
2023/07/09 08:19:50;;;;;;;;;2.00;1.00;;;;;30.78;50.42;100735.13;5016246;28;46793;-83
2023/07/09 08:22:16;;;;;;;;;1.00;0.67;;;;;31.19;47.87;100740.22;5015283;28;45304;-80
2023/07/09 08:24:42;;;;;;;;;3.00;2.00;;;;;31.32;48.45;100741.31;5017659;28;45524;-88
2023/07/09 08:27:09;;;;;;;;;1.67;1.67;;;;;31.39;47.22;100733.75;5014272;28;45390;-79
2023/07/09 08:29:35;;;;;;;;;1.00;1.00;;;;;31.62;46.96;100736.09;5016197;28;45471;-76
2023/07/09 08:32:01;;;;;;;;;3.00;2.67;;;;;31.62;47.65;100727.13;5018215;28;45408;-78
2023/07/09 08:34:27;;;;;;;;;1.00;1.00;;;;;32.04;45.30;100739.22;5017384;28;46385;-78
2023/07/09 08:36:53;;;;;;;;;3.00;3.00;;;;;33.22;43.08;100734.09;5017324;28;45683;-79
2023/07/09 08:39:19;;;;;;;;;3.00;2.00;;;;;35.14;40.92;100724.22;5016632;28;45462;-75
2023/07/09 08:41:53;;;;;;;;;2.33;2.33;;;;;35.21;39.39;100708.38;5017721;28;45477;-82
2023/07/09 08:44:31;;;;;;;;;2.00;1.00;;;;;35.41;37.75;100743.13;5017623;28;45418;-79
2023/07/09 08:47:26;;;;;;;;;0.67;0.67;;;;;34.92;39.64;100722.13;5016331;28;45678;-77
2023/07/09 08:50:18;;;;;;;;;0.33;0.00;;;;;34.40;39.78;100720.22;5007332;28;45231;-79
2023/07/09 08:52:47;;;;;;;;;2.00;1.00;;;;;34.51;40.14;100742.09;5016900;28;45481;-81
2023/07/09 08:55:27;;;;;;;;;2.67;0.67;;;;;34.75;39.59;100730.56;5017303;28;46619;-77
2023/07/09 08:58:01;;;;;;;;;1.33;1.33;;;;;34.93;38.55;100742.00;5015119;28;45529;-75
2023/07/09 09:00:41;;;;;;;;;0.00;0.00;;;;;35.25;38.61;100737.06;5017429;28;45508;-78
2023/07/09 09:03:27;;;;;;;;;1.33;1.00;;;;;36.11;37.35;100725.41;5017013;28;45526;-78
2023/07/09 09:05:53;;;;;;;;;1.67;1.67;;;;;37.00;35.17;100737.69;5014777;28;46497;-79
2023/07/09 09:08:30;;;;;;;;;2.00;1.00;;;;;38.76;32.41;100737.09;5016573;28;45410;-77
2023/07/09 09:11:34;;;;;;;;;1.67;1.67;;;;;39.17;33.24;100735.34;5015754;28;45479;-77
2023/07/09 09:14:13;;;;;;;;;2.33;2.00;;;;;38.55;32.13;100721.53;5016987;28;45432;-75
2023/07/09 09:16:44;;;;;;;;;2.67;2.00;;;;;39.40;32.31;100724.28;5017191;28;45470;-80
2023/07/09 09:19:38;;;;;;;;;1.33;1.00;;;;;40.46;30.96;100729.22;5017199;28;45354;-79
2023/07/09 09:22:11;;;;;;;;;4.33;2.33;;;;;41.28;29.33;100732.47;5015461;28;45274;-79
2023/07/09 09:24:55;;;;;;;;;2.00;2.00;;;;;41.91;29.52;100712.56;5017657;28;45451;-76
2023/07/09 09:27:21;;;;;;;;;2.00;2.00;;;;;42.74;28.82;100717.88;5016889;28;46195;-79
2023/07/09 09:29:46;;;;;;;;;1.00;1.00;;;;;42.49;27.19;100714.91;5017320;28;45521;-75
2023/07/09 09:32:24;;;;;;;;;2.67;2.67;;;;;42.86;27.51;100719.38;5017329;28;45485;-78
2023/07/09 09:34:51;;;;;;;;;2.00;2.00;;;;;43.08;26.25;100731.72;5015577;28;45579;-78
2023/07/09 09:37:26;;;;;;;;;3.00;2.00;;;;;43.49;26.58;100707.22;5015978;28;45432;-75
2023/07/09 09:39:51;;;;;;;;;8.00;8.00;;;;;44.27;25.65;100727.28;5020403;28;45646;-77
2023/07/09 09:42:17;;;;;;;;;2.00;1.33;;;;;44.61;25.56;100724.44;5008935;28;45278;-79
2023/07/09 09:44:46;;;;;;;;;2.00;1.67;;;;;45.11;24.22;100735.41;5011259;28;45501;-80
2023/07/09 09:47:13;;;;;;;;;4.00;2.67;;;;;44.75;24.04;100719.22;5009439;28;47789;-77
2023/07/09 09:49:43;;;;;;;;;2.67;2.00;;;;;44.05;25.15;100703.97;5005308;28;45647;-79
2023/07/09 09:52:18;;;;;;;;;5.00;5.00;;;;;43.34;26.37;100730.03;5011259;28;45487;-78
2023/07/09 09:55:10;;;;;;;;;1.00;0.67;;;;;43.09;26.63;100733.44;5016770;28;45483;-78
2023/07/09 09:57:36;;;;;;;;;4.00;3.00;;;;;42.08;27.46;100739.22;5015540;28;46346;-79
2023/07/09 10:00:02;;;;;;;;;2.67;2.67;;;;;40.86;28.88;100741.03;5005848;28;45535;-76
2023/07/09 10:02:27;;;;;;;;;2.00;1.33;;;;;40.50;30.05;100714.22;5006813;28;45364;-81
2023/07/09 10:04:53;;;;;;;;;2.00;2.00;;;;;40.13;30.51;100739.53;5005916;28;45406;-78
2023/07/09 10:07:29;;;;;;;;;2.00;1.00;;;;;39.56;31.54;100750.13;5005177;28;45961;-73
2023/07/09 10:09:56;;;;;;;;;3.00;3.00;;;;;39.11;32.01;100744.97;5005671;28;45473;-79
2023/07/09 10:12:38;;;;;;;;;3.33;2.00;;;;;38.76;32.83;100753.47;5016512;28;45650;-79
2023/07/09 10:15:30;;;;;;;;;2.67;2.67;;;;;38.42;32.82;100753.59;5016208;28;45430;-81
2023/07/09 10:17:59;;;;;;;;;2.00;2.00;;;;;38.10;33.34;100756.25;5015660;28;45549;-79
2023/07/09 10:20:45;;;;;;;;;2.00;1.67;;;;;37.70;33.26;100756.78;5016462;28;45449;-80
2023/07/09 10:23:34;;;;;;;;;3.00;1.33;;;;;37.32;34.54;100756.09;5017095;28;45344;-79
2023/07/09 10:26:20;;;;;;;;;1.00;1.00;;;;;37.22;35.08;100768.72;5016066;28;45595;-78
2023/07/09 10:29:25;;;;;;;;;2.00;2.00;;;;;37.01;35.39;100766.69;5016560;28;46145;-79
2023/07/09 10:32:12;;;;;;;;;4.67;4.00;;;;;36.85;35.46;100767.97;5016754;28;45449;-77
2023/07/09 10:35:07;;;;;;;;;2.00;1.00;;;;;36.09;36.67;100770.88;5016724;28;45505;-79
2023/07/09 10:38:04;;;;;;;;;2.00;2.00;;;;;35.61;37.58;100763.44;5016560;28;45715;-79
2023/07/09 10:40:45;;;;;;;;;2.33;1.67;;;;;35.45;37.74;100762.78;5016685;28;45595;-79
2023/07/09 10:43:19;;;;;;;;;1.00;1.00;;;;;35.30;37.92;100767.47;5016521;28;45483;-78
2023/07/09 10:45:48;;;;;;;;;6.00;5.00;;;;;35.20;37.92;100740.09;5015148;28;45462;-78
2023/07/09 10:48:18;;;;;;;;;1.67;1.67;;;;;35.47;37.65;100784.44;5018312;28;45434;-79
2023/07/09 10:50:53;;;;;;;;;1.33;0.67;;;;;35.40;37.90;100774.00;5018733;28;46398;-80
2023/07/09 10:53:29;;;;;;;;;3.00;3.00;;;;;35.41;38.26;100781.16;5019723;28;45522;-79
2023/07/09 10:56:05;;;;;;;;;4.00;3.00;;;;;35.52;38.23;100785.84;5020053;28;45237;-78
2023/07/09 10:58:39;;;;;;;;;2.67;2.00;;;;;35.44;38.28;100780.94;5016010;28;45221;-79
2023/07/09 11:01:05;;;;;;;;;1.33;1.33;;;;;35.54;38.67;100791.19;5019756;28;45328;-78
2023/07/09 11:03:49;;;;;;;;;0.33;0.33;;;;;35.64;38.08;100792.25;5020188;28;45633;-79
2023/07/09 11:06:37;;;;;;;;;0.67;0.67;;;;;35.72;37.91;100789.88;5020047;28;45514;-79
2023/07/09 11:09:10;;;;;;;;;3.33;3.33;;;;;36.12;37.58;100788.81;5018899;28;45511;-79
2023/07/09 11:11:48;;;;;;;;;2.00;2.00;;;;;36.45;37.38;100782.75;5018624;28;47085;-78
2023/07/09 11:14:29;;;;;;;;;2.00;2.00;;;;;36.26;36.82;100785.13;5004323;28;45536;-79
2023/07/09 11:16:58;;;;;;;;;2.00;1.00;;;;;35.96;37.40;100791.81;5018651;28;45443;-79
2023/07/09 11:19:24;;;;;;;;;2.33;2.00;;;;;35.73;37.42;100779.88;5019825;28;45512;-79
2023/07/09 11:22:09;;;;;;;;;1.33;1.00;;;;;35.50;38.09;100786.94;5019666;28;46096;-78
2023/07/09 11:25:06;;;;;;;;;3.00;3.00;;;;;35.32;37.99;100800.84;5020229;28;45500;-78
2023/07/09 11:27:32;;;;;;;;;2.67;1.67;;;;;35.19;38.21;100791.78;5019970;28;45264;-79
2023/07/09 11:30:23;;;;;;;;;1.67;1.00;;;;;34.95;38.88;100778.91;5018578;28;45298;-80
2023/07/09 11:32:55;;;;;;;;;2.00;2.00;;;;;35.09;38.67;100801.53;5017825;28;46181;-80
2023/07/09 11:35:29;;;;;;;;;0.33;0.33;;;;;35.00;38.35;100787.63;5019510;28;45500;-79
2023/07/09 11:37:58;;;;;;;;;1.33;1.33;;;;;34.86;38.76;100790.41;5019699;28;45435;-79